sensor_id;sensor_type;location;lat;lon;timestamp;pressure;altitude;pressure_sealevel;temperature;humidity
6393;BME280;3229;42.674;23.282;2022-08-01T00:02:16;94573.06;;;23.13;54.26
6393;BME280;3229;42.674;23.282;2022-08-01T00:04:44;94479.50;;;22.43;54.17
6393;BME280;3229;42.674;23.282;2022-08-01T00:07:11;94581.34;;;23.10;54.01
6393;BME280;3229;42.674;23.282;2022-08-01T00:09:38;94325.78;;;21.45;54.22
6393;BME280;3229;42.674;23.282;2022-08-01T00:12:05;94342.44;;;21.62;53.88
6393;BME280;3229;42.674;23.282;2022-08-01T00:14:32;94573.72;;;23.09;54.30
6393;BME280;3229;42.674;23.282;2022-08-01T00:16:59;94525.50;;;22.74;53.98
6393;BME280;3229;42.674;23.282;2022-08-01T00:19:26;94545.03;;;22.90;54.10
6393;BME280;3229;42.674;23.282;2022-08-01T00:21:55;94572.78;;;23.03;54.25
6393;BME280;3229;42.674;23.282;2022-08-01T00:24:22;94432.13;;;22.10;54.20
6393;BME280;3229;42.674;23.282;2022-08-01T00:26:50;94559.06;;;22.89;54.28
6393;BME280;3229;42.674;23.282;2022-08-01T00:29:17;94577.06;;;22.97;54.56
6393;BME280;3229;42.674;23.282;2022-08-01T00:31:44;94434.56;;;22.04;54.23
6393;BME280;3229;42.674;23.282;2022-08-01T00:34:11;94405.31;;;21.84;54.37
6393;BME280;3229;42.674;23.282;2022-08-01T00:36:41;94512.88;;;22.53;54.57
6393;BME280;3229;42.674;23.282;2022-08-01T00:39:09;94576.94;;;22.86;54.53
6393;BME280;3229;42.674;23.282;2022-08-01T00:41:36;94432.88;;;21.92;54.53
6393;BME280;3229;42.674;23.282;2022-08-01T00:44:04;94535.91;;;22.38;54.45
6393;BME280;3229;42.674;23.282;2022-08-01T00:46:32;94552.78;;;22.53;54.66
6393;BME280;3229;42.674;23.282;2022-08-01T00:48:59;94518.88;;;22.35;54.99
6393;BME280;3229;42.674;23.282;2022-08-01T00:51:26;94573.88;;;22.70;55.33
6393;BME280;3229;42.674;23.282;2022-08-01T00:53:53;94544.25;;;22.46;55.68
6393;BME280;3229;42.674;23.282;2022-08-01T00:56:25;94568.94;;;22.62;56.11
6393;BME280;3229;42.674;23.282;2022-08-01T00:58:52;94576.41;;;22.59;56.67
6393;BME280;3229;42.674;23.282;2022-08-01T01:01:22;94577.84;;;22.54;56.93
6393;BME280;3229;42.674;23.282;2022-08-01T01:03:49;94517.25;;;22.16;57.13
6393;BME280;3229;42.674;23.282;2022-08-01T01:06:25;94399.22;;;21.47;57.08
6393;BME280;3229;42.674;23.282;2022-08-01T01:09:00;94557.69;;;22.43;57.47
6393;BME280;3229;42.674;23.282;2022-08-01T01:11:39;94545.88;;;22.41;57.31
6393;BME280;3229;42.674;23.282;2022-08-01T01:14:21;94450.47;;;21.71;57.29
6393;BME280;3229;42.674;23.282;2022-08-01T01:16:51;94551.59;;;22.31;56.72
6393;BME280;3229;42.674;23.282;2022-08-01T01:19:23;94487.19;;;21.88;56.74
6393;BME280;3229;42.674;23.282;2022-08-01T01:22:08;94552.44;;;22.25;56.75
6393;BME280;3229;42.674;23.282;2022-08-01T01:24:46;94548.91;;;22.19;56.59
6393;BME280;3229;42.674;23.282;2022-08-01T01:27:24;94548.28;;;22.17;56.55
6393;BME280;3229;42.674;23.282;2022-08-01T01:29:54;94482.47;;;21.78;56.35
6393;BME280;3229;42.674;23.282;2022-08-01T01:32:29;94547.13;;;22.13;56.21
6393;BME280;3229;42.674;23.282;2022-08-01T01:35:01;94540.31;;;22.12;55.70
6393;BME280;3229;42.674;23.282;2022-08-01T01:37:29;94531.88;;;22.10;55.23
6393;BME280;3229;42.674;23.282;2022-08-01T01:40:00;94538.53;;;22.06;55.72
6393;BME280;3229;42.674;23.282;2022-08-01T01:42:30;94524.94;;;22.04;55.22
6393;BME280;3229;42.674;23.282;2022-08-01T01:45:00;94414.34;;;21.32;54.63
6393;BME280;3229;42.674;23.282;2022-08-01T01:47:31;94359.72;;;21.00;54.73
6393;BME280;3229;42.674;23.282;2022-08-01T01:50:00;94271.84;;;20.45;54.36
6393;BME280;3229;42.674;23.282;2022-08-01T01:52:31;94525.56;;;21.99;54.11
6393;BME280;3229;42.674;23.282;2022-08-01T01:54:58;94336.66;;;20.78;53.62
6393;BME280;3229;42.674;23.282;2022-08-01T01:57:28;94392.56;;;21.19;52.95
6393;BME280;3229;42.674;23.282;2022-08-01T01:59:57;94432.69;;;21.43;53.06
6393;BME280;3229;42.674;23.282;2022-08-01T02:05:33;94451.84;;;21.49;52.38
6393;BME280;3229;42.674;23.282;2022-08-01T02:08:03;94509.63;;;21.89;51.95
6393;BME280;3229;42.674;23.282;2022-08-01T02:10:32;94517.06;;;21.86;52.02
6393;BME280;3229;42.674;23.282;2022-08-01T02:15:33;94352.00;;;20.87;51.94
6393;BME280;3229;42.674;23.282;2022-08-01T02:18:31;94500.84;;;21.84;51.81
6393;BME280;3229;42.674;23.282;2022-08-01T02:21:04;94376.91;;;21.01;51.73
6393;BME280;3229;42.674;23.282;2022-08-01T02:23:34;94387.06;;;21.09;51.88
6393;BME280;3229;42.674;23.282;2022-08-01T02:26:08;94442.69;;;21.40;51.99
6393;BME280;3229;42.674;23.282;2022-08-01T02:28:39;94252.81;;;20.20;51.75
6393;BME280;3229;42.674;23.282;2022-08-01T02:31:12;94493.50;;;21.74;51.33
6393;BME280;3229;42.674;23.282;2022-08-01T02:33:43;94498.16;;;21.72;51.35
6393;BME280;3229;42.674;23.282;2022-08-01T02:36:12;94496.97;;;21.68;51.23
6393;BME280;3229;42.674;23.282;2022-08-01T02:38:44;94498.56;;;21.69;50.84
6393;BME280;3229;42.674;23.282;2022-08-01T02:41:14;94499.56;;;21.68;50.69
6393;BME280;3229;42.674;23.282;2022-08-01T02:43:48;94504.19;;;21.66;50.72
6393;BME280;3229;42.674;23.282;2022-08-01T02:46:20;94497.78;;;21.62;50.83
6393;BME280;3229;42.674;23.282;2022-08-01T02:48:50;94442.75;;;21.26;50.76
6393;BME280;3229;42.674;23.282;2022-08-01T02:51:21;94493.59;;;21.61;50.91
6393;BME280;3229;42.674;23.282;2022-08-01T02:53:53;94485.19;;;21.59;50.53
6393;BME280;3229;42.674;23.282;2022-08-01T02:56:22;94491.41;;;21.58;50.31
6393;BME280;3229;42.674;23.282;2022-08-01T02:59:02;94481.69;;;21.46;50.40
6393;BME280;3229;42.674;23.282;2022-08-01T03:01:32;94497.63;;;21.57;50.47
6393;BME280;3229;42.674;23.282;2022-08-01T03:04:01;94464.16;;;21.35;50.28
6393;BME280;3229;42.674;23.282;2022-08-01T03:06:32;94475.50;;;21.41;50.30
6393;BME280;3229;42.674;23.282;2022-08-01T03:09:01;94433.84;;;21.09;50.46
6393;BME280;3229;42.674;23.282;2022-08-01T03:11:29;94490.50;;;21.45;50.71
6393;BME280;3229;42.674;23.282;2022-08-01T03:13:59;94261.94;;;19.91;50.60
6393;BME280;3229;42.674;23.282;2022-08-01T03:16:30;94398.47;;;20.70;49.94
6393;BME280;3229;42.674;23.282;2022-08-01T03:19:01;94501.97;;;21.38;50.36
6393;BME280;3229;42.674;23.282;2022-08-01T03:21:31;94466.25;;;21.13;50.42
6393;BME280;3229;42.674;23.282;2022-08-01T03:24:01;94333.91;;;20.22;51.23
6393;BME280;3229;42.674;23.282;2022-08-01T03:26:32;94460.31;;;20.99;51.71
6393;BME280;3229;42.674;23.282;2022-08-01T03:29:04;94359.19;;;20.40;52.21
6393;BME280;3229;42.674;23.282;2022-08-01T03:31:40;94505.78;;;21.35;52.51
6393;BME280;3229;42.674;23.282;2022-08-01T03:34:13;94504.38;;;21.33;52.86
6393;BME280;3229;42.674;23.282;2022-08-01T03:36:59;94341.66;;;20.28;53.33
6393;BME280;3229;42.674;23.282;2022-08-01T03:39:30;94485.84;;;21.16;53.90
6393;BME280;3229;42.674;23.282;2022-08-01T03:42:01;94312.63;;;20.00;54.60
6393;BME280;3229;42.674;23.282;2022-08-01T03:44:33;94449.13;;;20.92;54.71
6393;BME280;3229;42.674;23.282;2022-08-01T03:47:49;94490.59;;;21.25;55.03
6393;BME280;3229;42.674;23.282;2022-08-01T03:50:16;94500.38;;;21.23;55.33
6393;BME280;3229;42.674;23.282;2022-08-01T03:52:50;94358.63;;;20.31;55.28
6393;BME280;3229;42.674;23.282;2022-08-01T03:55:33;94499.81;;;21.21;54.84
6393;BME280;3229;42.674;23.282;2022-08-01T03:58:05;94355.81;;;20.33;54.02
6393;BME280;3229;42.674;23.282;2022-08-01T04:00:33;94285.31;;;19.84;52.93
6393;BME280;3229;42.674;23.282;2022-08-01T04:03:04;94485.84;;;21.16;52.32
6393;BME280;3229;42.674;23.282;2022-08-01T04:05:31;94486.81;;;21.21;52.18
6393;BME280;3229;42.674;23.282;2022-08-01T04:08:04;94347.84;;;20.34;51.87
6393;BME280;3229;42.674;23.282;2022-08-01T04:10:34;94477.06;;;21.10;51.94
6393;BME280;3229;42.674;23.282;2022-08-01T04:13:02;94369.56;;;20.46;51.87
6393;BME280;3229;42.674;23.282;2022-08-01T04:15:41;94367.16;;;20.45;51.59
6393;BME280;3229;42.674;23.282;2022-08-01T04:18:10;94502.97;;;21.30;51.53
6393;BME280;3229;42.674;23.282;2022-08-01T04:20:41;94169.97;;;19.09;52.95
6393;BME280;3229;42.674;23.282;2022-08-01T04:23:10;94503.16;;;21.28;54.36
6393;BME280;3229;42.674;23.282;2022-08-01T04:25:39;94515.19;;;21.29;55.56
6393;BME280;3229;42.674;23.282;2022-08-01T04:28:13;94511.56;;;21.30;55.99
6393;BME280;3229;42.674;23.282;2022-08-01T04:30:42;94519.59;;;21.29;56.00
6393;BME280;3229;42.674;23.282;2022-08-01T04:35:49;94426.81;;;20.78;56.09
6393;BME280;3229;42.674;23.282;2022-08-01T04:38:21;94311.78;;;20.06;56.32
6393;BME280;3229;42.674;23.282;2022-08-01T04:40:52;94473.28;;;21.06;56.06
6393;BME280;3229;42.674;23.282;2022-08-01T04:43:20;94516.97;;;21.36;56.06
6393;BME280;3229;42.674;23.282;2022-08-01T04:45:50;94493.81;;;21.21;55.90
6393;BME280;3229;42.674;23.282;2022-08-01T04:48:18;94365.38;;;20.45;56.10
6393;BME280;3229;42.674;23.282;2022-08-01T04:50:46;94516.31;;;21.47;55.45
6393;BME280;3229;42.674;23.282;2022-08-01T04:53:14;94461.22;;;21.18;55.52
6393;BME280;3229;42.674;23.282;2022-08-01T04:55:44;94407.78;;;20.91;55.98
6393;BME280;3229;42.674;23.282;2022-08-01T04:58:12;94461.75;;;21.27;56.24
6393;BME280;3229;42.674;23.282;2022-08-01T05:00:40;94319.63;;;20.44;56.61
6393;BME280;3229;42.674;23.282;2022-08-01T05:03:07;94518.22;;;21.65;56.79
6393;BME280;3229;42.674;23.282;2022-08-01T05:05:34;94350.19;;;20.56;56.73
6393;BME280;3229;42.674;23.282;2022-08-01T05:08:01;94331.41;;;20.47;57.29
6393;BME280;3229;42.674;23.282;2022-08-01T05:10:28;94313.84;;;20.42;57.25
6393;BME280;3229;42.674;23.282;2022-08-01T05:12:58;94458.06;;;21.48;57.71
6393;BME280;3229;42.674;23.282;2022-08-01T05:15:26;94502.78;;;21.95;58.26
6393;BME280;3229;42.674;23.282;2022-08-01T05:17:53;94369.25;;;21.06;57.79
6393;BME280;3229;42.674;23.282;2022-08-01T05:20:21;94491.41;;;21.89;57.29
6393;BME280;3229;42.674;23.282;2022-08-01T05:22:48;94361.06;;;21.09;57.24
6393;BME280;3229;42.674;23.282;2022-08-01T05:25:15;94504.16;;;22.22;57.47
6393;BME280;3229;42.674;23.282;2022-08-01T05:27:42;94511.72;;;22.31;57.30
6393;BME280;3229;42.674;23.282;2022-08-01T05:30:11;94510.56;;;22.45;57.24
6393;BME280;3229;42.674;23.282;2022-08-01T05:32:38;94500.00;;;22.58;56.66
6393;BME280;3229;42.674;23.282;2022-08-01T05:35:07;94504.00;;;22.61;54.32
6393;BME280;3229;42.674;23.282;2022-08-01T05:37:34;94505.38;;;22.82;55.27
6393;BME280;3229;42.674;23.282;2022-08-01T05:40:02;94461.63;;;22.65;55.28
6393;BME280;3229;42.674;23.282;2022-08-01T05:42:29;94452.38;;;22.69;54.67
6393;BME280;3229;42.674;23.282;2022-08-01T05:44:56;94510.94;;;23.22;53.52
6393;BME280;3229;42.674;23.282;2022-08-01T05:47:25;94513.06;;;23.43;52.06
6393;BME280;3229;42.674;23.282;2022-08-01T05:49:52;94510.88;;;23.59;51.38
6393;BME280;3229;42.674;23.282;2022-08-01T05:52:19;94514.22;;;23.77;50.29
6393;BME280;3229;42.674;23.282;2022-08-01T05:54:45;94507.91;;;23.97;49.59
6393;BME280;3229;42.674;23.282;2022-08-01T05:57:12;94511.34;;;24.21;49.66
6393;BME280;3229;42.674;23.282;2022-08-01T05:59:41;94507.38;;;24.42;48.05
6393;BME280;3229;42.674;23.282;2022-08-01T06:02:08;94511.50;;;24.61;47.49
6393;BME280;3229;42.674;23.282;2022-08-01T06:04:37;94510.84;;;24.83;46.30
6393;BME280;3229;42.674;23.282;2022-08-01T06:07:03;94516.41;;;24.98;46.48
6393;BME280;3229;42.674;23.282;2022-08-01T06:09:30;94517.63;;;25.07;45.55
6393;BME280;3229;42.674;23.282;2022-08-01T06:11:57;94503.97;;;25.17;44.68
6393;BME280;3229;42.674;23.282;2022-08-01T06:14:24;94494.53;;;25.16;44.06
6393;BME280;3229;42.674;23.282;2022-08-01T06:16:51;94515.84;;;25.48;43.27
6393;BME280;3229;42.674;23.282;2022-08-01T06:19:18;94450.06;;;25.16;43.33
6393;BME280;3229;42.674;23.282;2022-08-01T06:21:46;94515.28;;;25.63;42.54
6393;BME280;3229;42.674;23.282;2022-08-01T06:24:13;94497.13;;;25.56;43.08
6393;BME280;3229;42.674;23.282;2022-08-01T06:26:40;94491.06;;;25.56;42.45
6393;BME280;3229;42.674;23.282;2022-08-01T06:29:07;94521.88;;;25.94;42.81
6393;BME280;3229;42.674;23.282;2022-08-01T06:31:34;94526.00;;;26.07;42.47
6393;BME280;3229;42.674;23.282;2022-08-01T06:34:01;94521.97;;;26.16;43.05
6393;BME280;3229;42.674;23.282;2022-08-01T06:36:28;94520.84;;;26.28;42.79
6393;BME280;3229;42.674;23.282;2022-08-01T06:38:57;94515.03;;;26.43;42.71
6393;BME280;3229;42.674;23.282;2022-08-01T06:41:24;94514.16;;;26.55;42.06
6393;BME280;3229;42.674;23.282;2022-08-01T06:43:50;94508.75;;;26.61;42.21
6393;BME280;3229;42.674;23.282;2022-08-01T06:46:17;94504.31;;;26.84;42.00
6393;BME280;3229;42.674;23.282;2022-08-01T06:51:51;94518.81;;;27.08;40.67
6393;BME280;3229;42.674;23.282;2022-08-01T06:54:20;94442.19;;;26.67;41.14
6393;BME280;3229;42.674;23.282;2022-08-01T06:56:47;94514.34;;;27.09;39.88
6393;BME280;3229;42.674;23.282;2022-08-01T06:59:14;94510.22;;;27.13;40.14
6393;BME280;3229;42.674;23.282;2022-08-01T07:01:41;94499.94;;;27.11;40.79
6393;BME280;3229;42.674;23.282;2022-08-01T07:04:07;94438.63;;;26.73;40.98
6393;BME280;3229;42.674;23.282;2022-08-01T07:06:34;94370.81;;;26.43;41.30
6393;BME280;3229;42.674;23.282;2022-08-01T07:09:01;94501.91;;;27.21;40.79
6393;BME280;3229;42.674;23.282;2022-08-01T07:11:30;94495.34;;;27.23;40.51
6393;BME280;3229;42.674;23.282;2022-08-01T07:13:57;94501.31;;;27.41;41.39
6393;BME280;3229;42.674;23.282;2022-08-01T07:16:24;94454.84;;;27.14;40.98
6393;BME280;3229;42.674;23.282;2022-08-01T07:18:54;94436.72;;;27.13;41.27
6393;BME280;3229;42.674;23.282;2022-08-01T07:21:21;94477.19;;;27.44;41.07
6393;BME280;3229;42.674;23.282;2022-08-01T07:23:48;94485.47;;;27.58;40.60
6393;BME280;3229;42.674;23.282;2022-08-01T07:26:16;94499.88;;;27.77;40.82
6393;BME280;3229;42.674;23.282;2022-08-01T07:28:52;94468.66;;;27.59;40.25
6393;BME280;3229;42.674;23.282;2022-08-01T07:31:23;94448.72;;;27.63;40.09
6393;BME280;3229;42.674;23.282;2022-08-01T07:33:51;94509.78;;;28.02;40.33
6393;BME280;3229;42.674;23.282;2022-08-01T07:36:20;94499.34;;;28.07;39.66
6393;BME280;3229;42.674;23.282;2022-08-01T07:38:56;94500.75;;;28.20;39.17
6393;BME280;3229;42.674;23.282;2022-08-01T07:41:24;94481.75;;;28.13;39.70
6393;BME280;3229;42.674;23.282;2022-08-01T07:43:55;94473.56;;;28.09;40.24
6393;BME280;3229;42.674;23.282;2022-08-01T07:46:25;94413.38;;;27.75;40.11
6393;BME280;3229;42.674;23.282;2022-08-01T07:49:06;94483.94;;;28.26;38.95
6393;BME280;3229;42.674;23.282;2022-08-01T07:51:33;94503.50;;;28.35;38.46
6393;BME280;3229;42.674;23.282;2022-08-01T07:54:10;94516.09;;;28.33;38.77
6393;BME280;3229;42.674;23.282;2022-08-01T07:56:51;94498.63;;;28.17;38.60
6393;BME280;3229;42.674;23.282;2022-08-01T07:59:34;94493.66;;;28.20;39.17
6393;BME280;3229;42.674;23.282;2022-08-01T08:02:01;94509.84;;;28.39;38.89
6393;BME280;3229;42.674;23.282;2022-08-01T08:04:28;94511.94;;;28.37;38.37
6393;BME280;3229;42.674;23.282;2022-08-01T08:06:55;94423.69;;;27.82;38.56
6393;BME280;3229;42.674;23.282;2022-08-01T08:09:22;94493.69;;;28.25;39.17
6393;BME280;3229;42.674;23.282;2022-08-01T08:11:49;94477.63;;;28.27;38.50
6393;BME280;3229;42.674;23.282;2022-08-01T08:14:17;94518.06;;;28.53;38.42
6393;BME280;3229;42.674;23.282;2022-08-01T08:16:45;94473.22;;;28.33;39.36
6393;BME280;3229;42.674;23.282;2022-08-01T08:19:13;94514.22;;;28.66;39.60
6393;BME280;3229;42.674;23.282;2022-08-01T08:21:40;94495.03;;;28.70;39.20
6393;BME280;3229;42.674;23.282;2022-08-01T08:24:08;94499.28;;;28.77;38.24
6393;BME280;3229;42.674;23.282;2022-08-01T08:26:50;94506.41;;;28.81;37.61
6393;BME280;3229;42.674;23.282;2022-08-01T08:29:18;94496.41;;;28.88;38.15
6393;BME280;3229;42.674;23.282;2022-08-01T08:31:49;94385.81;;;28.20;38.06
6393;BME280;3229;42.674;23.282;2022-08-01T08:34:18;94499.88;;;28.89;37.92
6393;BME280;3229;42.674;23.282;2022-08-01T08:36:47;94491.44;;;28.92;37.17
6393;BME280;3229;42.674;23.282;2022-08-01T08:39:15;94478.25;;;28.87;38.27
6393;BME280;3229;42.674;23.282;2022-08-01T08:41:43;94513.91;;;29.05;38.07
6393;BME280;3229;42.674;23.282;2022-08-01T08:44:10;94500.50;;;29.06;37.70
6393;BME280;3229;42.674;23.282;2022-08-01T08:46:40;94502.31;;;29.06;37.43
6393;BME280;3229;42.674;23.282;2022-08-01T08:49:10;94496.28;;;29.10;36.98
6393;BME280;3229;42.674;23.282;2022-08-01T08:51:39;94484.72;;;29.11;36.54
6393;BME280;3229;42.674;23.282;2022-08-01T08:54:07;94362.19;;;28.31;36.94
6393;BME280;3229;42.674;23.282;2022-08-01T08:57:13;94176.53;;;27.09;36.82
6393;BME280;3229;42.674;23.282;2022-08-01T08:59:40;94492.59;;;29.11;36.45
6393;BME280;3229;42.674;23.282;2022-08-01T09:02:09;94489.69;;;29.03;35.62
6393;BME280;3229;42.674;23.282;2022-08-01T09:04:40;94483.34;;;29.04;35.28
6393;BME280;3229;42.674;23.282;2022-08-01T09:07:07;94494.69;;;29.04;36.06
6393;BME280;3229;42.674;23.282;2022-08-01T09:09:35;94483.34;;;29.04;35.79
6393;BME280;3229;42.674;23.282;2022-08-01T09:12:03;94487.31;;;29.06;35.54
6393;BME280;3229;42.674;23.282;2022-08-01T09:14:30;94464.88;;;28.93;35.58
6393;BME280;3229;42.674;23.282;2022-08-01T09:17:03;94481.19;;;28.95;35.84
6393;BME280;3229;42.674;23.282;2022-08-01T09:19:36;94407.25;;;28.44;36.62
6393;BME280;3229;42.674;23.282;2022-08-01T09:22:06;94472.22;;;28.91;37.10
6393;BME280;3229;42.674;23.282;2022-08-01T09:24:33;94470.91;;;28.94;37.05
6393;BME280;3229;42.674;23.282;2022-08-01T09:27:15;94468.59;;;28.97;36.11
6393;BME280;3229;42.674;23.282;2022-08-01T09:29:43;94482.56;;;28.98;36.19
6393;BME280;3229;42.674;23.282;2022-08-01T09:32:10;94469.63;;;29.02;36.76
6393;BME280;3229;42.674;23.282;2022-08-01T09:34:38;94483.03;;;28.95;36.54
6393;BME280;3229;42.674;23.282;2022-08-01T09:37:06;94469.00;;;28.84;37.48
6393;BME280;3229;42.674;23.282;2022-08-01T09:39:35;94338.66;;;28.04;36.75
6393;BME280;3229;42.674;23.282;2022-08-01T09:42:20;94472.94;;;28.77;36.63
6393;BME280;3229;42.674;23.282;2022-08-01T09:44:47;94474.50;;;28.72;37.19
6393;BME280;3229;42.674;23.282;2022-08-01T09:47:14;94467.13;;;28.74;37.37
6393;BME280;3229;42.674;23.282;2022-08-01T09:49:43;94302.38;;;27.63;37.57
6393;BME280;3229;42.674;23.282;2022-08-01T09:52:13;94473.25;;;28.80;38.33
6393;BME280;3229;42.674;23.282;2022-08-01T09:54:41;94458.47;;;28.84;38.71
6393;BME280;3229;42.674;23.282;2022-08-01T09:57:13;94470.63;;;28.90;39.03
6393;BME280;3229;42.674;23.282;2022-08-01T09:59:44;94460.88;;;28.86;38.09
6393;BME280;3229;42.674;23.282;2022-08-01T10:02:13;94472.75;;;28.93;38.62
6393;BME280;3229;42.674;23.282;2022-08-01T10:04:48;94452.41;;;28.79;37.62
6393;BME280;3229;42.674;23.282;2022-08-01T10:07:17;94474.84;;;28.91;37.32
6393;BME280;3229;42.674;23.282;2022-08-01T10:09:46;94478.03;;;28.93;37.29
6393;BME280;3229;42.674;23.282;2022-08-01T10:12:16;94465.91;;;28.92;37.88
6393;BME280;3229;42.674;23.282;2022-08-01T10:14:45;94470.97;;;28.99;37.13
6393;BME280;3229;42.674;23.282;2022-08-01T10:17:15;94467.78;;;28.97;37.52
6393;BME280;3229;42.674;23.282;2022-08-01T10:19:43;94459.34;;;28.95;38.03
6393;BME280;3229;42.674;23.282;2022-08-01T10:22:13;94465.16;;;28.97;37.28
6393;BME280;3229;42.674;23.282;2022-08-01T10:24:45;94454.38;;;28.98;37.48
6393;BME280;3229;42.674;23.282;2022-08-01T10:27:15;94460.94;;;29.01;37.43
6393;BME280;3229;42.674;23.282;2022-08-01T10:29:48;94454.91;;;29.00;37.77
6393;BME280;3229;42.674;23.282;2022-08-01T10:32:24;94449.06;;;28.93;37.69
6393;BME280;3229;42.674;23.282;2022-08-01T10:34:57;94366.94;;;28.34;37.00
6393;BME280;3229;42.674;23.282;2022-08-01T10:37:24;94452.22;;;28.90;37.69
6393;BME280;3229;42.674;23.282;2022-08-01T10:39:53;94457.19;;;28.87;37.70
6393;BME280;3229;42.674;23.282;2022-08-01T10:42:21;94445.88;;;28.86;37.63
6393;BME280;3229;42.674;23.282;2022-08-01T10:44:48;94442.44;;;28.86;38.02
6393;BME280;3229;42.674;23.282;2022-08-01T10:47:18;94437.97;;;28.86;37.68
6393;BME280;3229;42.674;23.282;2022-08-01T10:50:04;94437.47;;;28.89;37.92
6393;BME280;3229;42.674;23.282;2022-08-01T10:52:33;94381.53;;;28.57;37.92
6393;BME280;3229;42.674;23.282;2022-08-01T10:55:05;94395.28;;;28.69;37.79
6393;BME280;3229;42.674;23.282;2022-08-01T10:57:44;94436.41;;;28.95;37.56
6393;BME280;3229;42.674;23.282;2022-08-01T11:00:17;94373.63;;;28.57;37.52
6393;BME280;3229;42.674;23.282;2022-08-01T11:02:57;94413.22;;;28.82;36.98
6393;BME280;3229;42.674;23.282;2022-08-01T11:05:27;94431.16;;;28.90;36.76
6393;BME280;3229;42.674;23.282;2022-08-01T11:07:55;94439.03;;;28.90;37.27
6393;BME280;3229;42.674;23.282;2022-08-01T11:10:25;94430.88;;;28.87;37.68
6393;BME280;3229;42.674;23.282;2022-08-01T11:12:58;94429.56;;;28.89;37.48
6393;BME280;3229;42.674;23.282;2022-08-01T11:15:26;94437.44;;;28.84;36.94
6393;BME280;3229;42.674;23.282;2022-08-01T11:18:00;94412.13;;;28.68;37.46
6393;BME280;3229;42.674;23.282;2022-08-01T11:20:28;94390.50;;;28.66;37.12
6393;BME280;3229;42.674;23.282;2022-08-01T11:26:11;94422.97;;;28.82;37.52
6393;BME280;3229;42.674;23.282;2022-08-01T11:28:38;94369.94;;;28.53;38.12
6393;BME280;3229;42.674;23.282;2022-08-01T11:31:28;94423.94;;;28.70;37.92
6393;BME280;3229;42.674;23.282;2022-08-01T11:33:55;94389.69;;;28.50;37.80
6393;BME280;3229;42.674;23.282;2022-08-01T11:36:23;94359.84;;;28.34;38.08
6393;BME280;3229;42.674;23.282;2022-08-01T11:39:11;94428.44;;;28.70;37.65
6393;BME280;3229;42.674;23.282;2022-08-01T11:41:40;94408.13;;;28.55;37.50
6393;BME280;3229;42.674;23.282;2022-08-01T11:44:10;94312.31;;;27.93;37.82
6393;BME280;3229;42.674;23.282;2022-08-01T11:46:52;94412.34;;;28.66;38.33
6393;BME280;3229;42.674;23.282;2022-08-01T11:49:25;94400.22;;;28.55;37.86
6393;BME280;3229;42.674;23.282;2022-08-01T11:52:00;94322.66;;;28.10;37.73
6393;BME280;3229;42.674;23.282;2022-08-01T11:54:29;94413.97;;;28.67;37.90
6393;BME280;3229;42.674;23.282;2022-08-01T11:56:59;94394.69;;;28.57;37.50
6393;BME280;3229;42.674;23.282;2022-08-01T11:59:27;94333.44;;;28.14;37.86
6393;BME280;3229;42.674;23.282;2022-08-01T12:01:54;94413.97;;;28.67;37.91
6393;BME280;3229;42.674;23.282;2022-08-01T12:04:23;94418.38;;;28.57;38.14
6393;BME280;3229;42.674;23.282;2022-08-01T12:06:50;94418.66;;;28.60;38.88
6393;BME280;3229;42.674;23.282;2022-08-01T12:09:19;94358.50;;;28.26;38.47
6393;BME280;3229;42.674;23.282;2022-08-01T12:11:48;94382.19;;;28.32;37.96
6393;BME280;3229;42.674;23.282;2022-08-01T12:14:18;94410.22;;;28.58;38.19
6393;BME280;3229;42.674;23.282;2022-08-01T12:16:50;94366.66;;;28.25;38.10
6393;BME280;3229;42.674;23.282;2022-08-01T12:19:20;94417.84;;;28.55;38.43
6393;BME280;3229;42.674;23.282;2022-08-01T12:22:05;94399.38;;;28.44;38.08
6393;BME280;3229;42.674;23.282;2022-08-01T12:24:32;94406.00;;;28.52;38.19
6393;BME280;3229;42.674;23.282;2022-08-01T12:26:59;94257.94;;;27.51;38.70
6393;BME280;3229;42.674;23.282;2022-08-01T12:29:39;94414.13;;;28.45;38.98
6393;BME280;3229;42.674;23.282;2022-08-01T12:32:31;94406.50;;;28.49;38.71
6393;BME280;3229;42.674;23.282;2022-08-01T12:35:02;94388.78;;;28.34;38.92
6393;BME280;3229;42.674;23.282;2022-08-01T12:37:29;94394.34;;;28.38;38.83
6393;BME280;3229;42.674;23.282;2022-08-01T12:39:57;94382.00;;;28.38;39.32
6393;BME280;3229;42.674;23.282;2022-08-01T12:42:24;94405.47;;;28.50;39.10
6393;BME280;3229;42.674;23.282;2022-08-01T12:44:53;94407.06;;;28.56;38.96
6393;BME280;3229;42.674;23.282;2022-08-01T12:47:21;94412.91;;;28.63;37.48
6393;BME280;3229;42.674;23.282;2022-08-01T12:49:48;94402.53;;;28.41;38.15
6393;BME280;3229;42.674;23.282;2022-08-01T12:52:15;94405.47;;;28.50;38.36
6393;BME280;3229;42.674;23.282;2022-08-01T12:55:10;94377.19;;;28.30;38.74
6393;BME280;3229;42.674;23.282;2022-08-01T12:57:40;94378.31;;;28.39;38.80
6393;BME280;3229;42.674;23.282;2022-08-01T13:00:13;94393.59;;;28.42;39.11
6393;BME280;3229;42.674;23.282;2022-08-01T13:02:41;94402.56;;;28.52;38.31
6393;BME280;3229;42.674;23.282;2022-08-01T13:05:09;94399.16;;;28.51;38.63
6393;BME280;3229;42.674;23.282;2022-08-01T13:07:42;94330.53;;;28.10;38.76
6393;BME280;3229;42.674;23.282;2022-08-01T13:10:10;94394.94;;;28.50;38.92
6393;BME280;3229;42.674;23.282;2022-08-01T13:12:37;94394.94;;;28.50;38.45
6393;BME280;3229;42.674;23.282;2022-08-01T13:15:32;94360.84;;;28.28;38.72
6393;BME280;3229;42.674;23.282;2022-08-01T13:18:02;94397.03;;;28.48;38.56
6393;BME280;3229;42.674;23.282;2022-08-01T13:20:48;94389.13;;;28.48;38.85
6393;BME280;3229;42.674;23.282;2022-08-01T13:23:16;94332.09;;;28.06;38.88
6393;BME280;3229;42.674;23.282;2022-08-01T13:25:51;94368.28;;;28.36;39.03
6393;BME280;3229;42.674;23.282;2022-08-01T13:28:20;94372.03;;;28.45;39.10
6393;BME280;3229;42.674;23.282;2022-08-01T13:30:57;94359.66;;;28.46;39.18
6393;BME280;3229;42.674;23.282;2022-08-01T13:33:25;94348.31;;;28.40;38.63
6393;BME280;3229;42.674;23.282;2022-08-01T13:35:53;94379.47;;;28.59;38.51
6393;BME280;3229;42.674;23.282;2022-08-01T13:38:21;94376.00;;;28.53;38.80
6393;BME280;3229;42.674;23.282;2022-08-01T13:41:09;94371.28;;;28.55;39.04
6393;BME280;3229;42.674;23.282;2022-08-01T13:43:36;94377.06;;;28.57;39.11